Time;durP1;ratioP1;P1;durP2;ratioP2;P2;SDS_P1;SDS_P2;PMS_P1;PMS_P2;Temp;Humidity;BMP_temperature;BMP_pressure;BME280_temperature;BME280_humidity;BME280_pressure;Samples;Min_cycle;Max_cycle;Signal;HPM_P1;HPM_P2
2021/06/12 00:00:00;;;;;;;2.65;2.45;;;21.60;69.20;;;;;;5037579;28;20025;-75
2021/06/12 00:02:25;;;;;;;4.72;3.00;;;21.60;68.90;;;;;;5048613;28;20028;-75
2021/06/12 00:04:51;;;;;;;5.53;3.15;;;21.60;68.90;;;;;;5038693;28;20029;-75
2021/06/12 00:07:17;;;;;;;4.10;2.67;;;21.60;69.10;;;;;;5035523;28;21643;-66
2021/06/12 00:09:43;;;;;;;2.90;2.60;;;21.50;69.10;;;;;;5037421;28;20034;-66
2021/06/12 00:12:09;;;;;;;5.10;2.65;;;21.50;69.10;;;;;;5036479;28;20468;-66
2021/06/12 00:14:35;;;;;;;4.68;3.25;;;21.50;69.10;;;;;;5037697;28;20523;-66
2021/06/12 00:17:00;;;;;;;4.13;3.30;;;21.50;69.00;;;;;;5035435;28;20060;-66
2021/06/12 00:19:28;;;;;;;4.90;3.50;;;21.50;69.30;;;;;;5036823;28;20040;-66
2021/06/12 00:21:53;;;;;;;3.70;3.00;;;21.40;69.40;;;;;;5037761;28;20024;-66
2021/06/12 00:24:19;;;;;;;3.80;2.95;;;21.30;69.90;;;;;;5037344;28;20021;-66
2021/06/12 00:26:45;;;;;;;4.05;3.20;;;21.20;69.90;;;;;;5036237;28;20064;-66
2021/06/12 00:29:10;;;;;;;3.17;2.95;;;21.10;70.20;;;;;;5037525;28;20029;-66
2021/06/12 00:31:36;;;;;;;3.88;3.22;;;21.00;70.50;;;;;;5032655;28;20057;-66
2021/06/12 00:34:01;;;;;;;5.18;3.20;;;21.00;71.40;;;;;;5036004;28;20032;-66
2021/06/12 00:36:27;;;;;;;5.07;3.55;;;20.90;72.40;;;;;;5037565;28;20036;-66
2021/06/12 00:38:52;;;;;;;3.58;3.28;;;20.70;73.50;;;;;;5040048;28;20543;-72
2021/06/12 00:41:19;;;;;;;4.38;3.28;;;20.50;74.20;;;;;;5041562;28;20046;-72
2021/06/12 00:43:45;;;;;;;3.35;3.05;;;20.30;75.20;;;;;;5039900;28;20084;-71
2021/06/12 00:46:11;;;;;;;4.95;3.33;;;20.20;75.40;;;;;;5040049;28;20415;-71
2021/06/12 00:48:38;;;;;;;4.95;3.20;;;20.20;75.60;;;;;;5039745;28;20484;-71
2021/06/12 00:51:04;;;;;;;6.00;3.03;;;20.10;76.20;;;;;;5039124;28;20274;-71
2021/06/12 00:53:52;;;;;;;4.18;2.85;;;20.10;75.60;;;;;;5042005;28;20021;-71
2021/06/12 00:56:19;;;;;;;5.93;3.92;;;20.20;75.50;;;;;;5040885;28;20041;-71
2021/06/12 00:58:47;;;;;;;3.40;3.10;;;20.30;76.10;;;;;;5039405;28;20065;-72
2021/06/12 01:01:18;;;;;;;5.90;3.83;;;20.30;76.00;;;;;;5042174;28;20104;-71
2021/06/12 01:03:45;;;;;;;5.63;3.10;;;20.20;76.40;;;;;;5038990;28;20404;-72
2021/06/12 01:06:13;;;;;;;5.05;3.33;;;20.20;76.10;;;;;;5039651;28;21771;-71
2021/06/12 01:08:39;;;;;;;3.92;3.45;;;20.30;75.70;;;;;;5040157;28;20033;-71
2021/06/12 01:11:05;;;;;;;3.30;3.00;;;20.30;75.30;;;;;;5041970;28;20021;-73
2021/06/12 01:13:34;;;;;;;4.00;3.33;;;20.40;75.20;;;;;;5040291;28;20017;-72
2021/06/12 01:16:19;;;;;;;4.40;2.65;;;20.40;74.80;;;;;;5040672;28;20143;-72
2021/06/12 01:18:46;;;;;;;4.10;3.42;;;20.50;75.80;;;;;;5039456;28;20036;-72
2021/06/12 01:21:22;;;;;;;10.15;4.00;;;20.50;76.10;;;;;;5040380;28;20452;-72
2021/06/12 01:24:22;;;;;;;4.35;3.55;;;20.40;76.20;;;;;;5040057;28;20025;-72
2021/06/12 01:27:06;;;;;;;5.07;4.60;;;20.30;77.10;;;;;;5037103;28;20029;-72
2021/06/12 01:29:58;;;;;;;7.13;4.63;;;20.20;77.10;;;;;;5038897;28;20116;-73
2021/06/12 01:32:26;;;;;;;7.53;4.63;;;20.10;77.60;;;;;;5040217;28;20030;-72
2021/06/12 01:34:55;;;;;;;4.38;3.97;;;20.10;78.50;;;;;;5024418;28;20056;-72
2021/06/12 01:37:22;;;;;;;6.68;3.97;;;20.00;79.00;;;;;;5037341;28;20503;-72
2021/06/12 01:39:50;;;;;;;5.60;3.95;;;19.90;79.10;;;;;;5040247;28;20043;-72
2021/06/12 01:42:16;;;;;;;5.25;3.70;;;20.00;79.30;;;;;;5040661;28;20060;-72
2021/06/12 01:44:42;;;;;;;6.20;3.88;;;20.00;79.10;;;;;;5037860;28;20029;-72
2021/06/12 01:47:09;;;;;;;6.25;4.57;;;20.00;79.70;;;;;;5038687;28;20029;-72
2021/06/12 01:49:36;;;;;;;5.13;4.55;;;19.90;80.30;;;;;;5038614;28;20029;-72
2021/06/12 01:52:03;;;;;;;4.47;4.00;;;19.90;80.50;;;;;;5038540;28;20017;-72
2021/06/12 01:54:29;;;;;;;7.13;4.43;;;19.80;80.60;;;;;;5022437;28;20063;-71
2021/06/12 01:56:56;;;;;;;7.95;5.03;;;19.90;80.70;;;;;;5039968;28;20122;-72
2021/06/12 01:59:23;;;;;;;3.95;3.60;;;19.90;80.70;;;;;;5039327;28;20025;-71
2021/06/12 02:01:52;;;;;;;6.80;4.28;;;20.00;80.30;;;;;;5038037;28;20044;-72
2021/06/12 02:04:18;;;;;;;4.25;3.85;;;20.10;80.30;;;;;;5041098;28;20017;-71
2021/06/12 02:06:45;;;;;;;6.32;3.90;;;20.10;80.20;;;;;;5037112;28;20200;-80
2021/06/12 02:09:13;;;;;;;5.82;4.47;;;20.20;80.20;;;;;;5038291;28;20075;-72
2021/06/12 02:11:39;;;;;;;7.03;4.63;;;20.30;79.80;;;;;;5040973;28;20037;-72
2021/06/12 02:14:07;;;;;;;4.88;4.47;;;20.40;79.60;;;;;;5038021;28;20025;-72
2021/06/12 02:16:35;;;;;;;4.85;3.63;;;20.40;79.00;;;;;;5039532;28;20376;-72
2021/06/12 02:19:01;;;;;;;5.93;3.78;;;20.50;78.60;;;;;;5038575;28;20372;-72
2021/06/12 02:21:27;;;;;;;6.35;5.05;;;20.50;78.20;;;;;;5040890;28;20036;-72
2021/06/12 02:23:53;;;;;;;7.82;4.82;;;20.60;78.20;;;;;;5036895;28;20025;-72
2021/06/12 02:26:22;;;;;;;5.28;4.78;;;20.60;78.30;;;;;;5038797;28;20385;-72
2021/06/12 02:28:50;;;;;;;5.20;4.00;;;20.60;78.40;;;;;;5037553;28;20029;-72
2021/06/12 02:31:21;;;;;;;5.10;4.60;;;20.40;78.70;;;;;;5037597;28;20387;-72
2021/06/12 02:33:47;;;;;;;4.97;4.13;;;20.40;79.20;;;;;;5039498;28;20113;-72
2021/06/12 02:36:14;;;;;;;7.20;5.10;;;20.40;78.70;;;;;;5039096;28;20104;-72
2021/06/12 02:38:39;;;;;;;5.22;4.72;;;20.40;78.80;;;;;;5037537;28;20059;-72
2021/06/12 02:41:05;;;;;;;4.88;4.38;;;20.50;78.70;;;;;;5039353;28;20488;-72
2021/06/12 02:43:30;;;;;;;5.18;4.68;;;20.40;79.10;;;;;;5037194;28;20583;-72
2021/06/12 02:45:56;;;;;;;4.57;3.78;;;20.50;78.60;;;;;;5038492;28;20098;-72
2021/06/12 02:48:27;;;;;;;14.32;4.60;;;20.50;78.50;;;;;;5038496;28;20550;-72
2021/06/12 02:50:53;;;;;;;4.95;4.55;;;20.50;78.30;;;;;;5039493;28;20083;-72
2021/06/12 02:53:24;;;;;;;6.38;4.97;;;20.60;78.20;;;;;;5039090;28;20160;-72
2021/06/12 02:55:50;;;;;;;8.65;5.43;;;20.60;78.40;;;;;;5037254;28;20026;-72
2021/06/12 02:58:21;;;;;;;6.85;6.15;;;20.50;78.20;;;;;;5036930;28;20029;-72
2021/06/12 03:00:49;;;;;;;6.03;4.60;;;20.50;77.90;;;;;;5036808;28;20032;-72
2021/06/12 03:03:15;;;;;;;6.25;4.00;;;20.60;77.90;;;;;;5039476;28;20470;-72
2021/06/12 03:05:45;;;;;;;6.63;5.43;;;20.60;77.80;;;;;;5038228;28;20029;-72
2021/06/12 03:08:13;;;;;;;6.18;5.07;;;20.60;77.70;;;;;;5039126;28;20026;-72
2021/06/12 03:10:41;;;;;;;7.60;4.85;;;20.60;78.10;;;;;;5039677;28;20428;-72
2021/06/12 03:13:11;;;;;;;5.57;4.85;;;20.60;78.30;;;;;;5037372;28;20028;-72
2021/06/12 03:15:37;;;;;;;4.85;4.45;;;20.50;78.30;;;;;;5052969;28;20489;-72
2021/06/12 03:18:04;;;;;;;5.63;5.03;;;20.50;78.20;;;;;;5038631;28;20511;-72
2021/06/12 03:20:30;;;;;;;7.25;6.10;;;20.50;78.20;;;;;;5039114;28;20033;-72
2021/06/12 03:23:01;;;;;;;4.97;4.47;;;20.40;78.30;;;;;;5038091;28;20034;-73
2021/06/12 03:25:27;;;;;;;6.43;4.93;;;20.40;78.20;;;;;;5036187;28;20418;-72
2021/06/12 03:27:54;;;;;;;6.28;4.82;;;20.50;78.50;;;;;;5038042;28;20025;-72
2021/06/12 03:30:20;;;;;;;5.78;5.18;;;20.40;78.70;;;;;;5037705;28;20025;-72
2021/06/12 03:32:46;;;;;;;7.47;5.20;;;20.40;78.20;;;;;;5037858;28;20380;-72
2021/06/12 03:35:12;;;;;;;10.45;5.45;;;20.50;78.80;;;;;;5037914;28;20033;-72
2021/06/12 03:37:40;;;;;;;6.95;5.47;;;20.60;78.30;;;;;;5038773;28;20373;-72
2021/06/12 03:40:06;;;;;;;8.38;5.05;;;20.60;77.90;;;;;;5038614;28;20112;-72
2021/06/12 03:42:32;;;;;;;7.15;5.47;;;20.60;77.80;;;;;;5039128;28;20484;-72
2021/06/12 03:45:02;;;;;;;5.68;5.18;;;20.70;77.50;;;;;;5036823;28;20072;-72
2021/06/12 03:47:28;;;;;;;6.78;5.97;;;20.70;77.60;;;;;;5035129;28;20456;-72
2021/06/12 03:49:54;;;;;;;5.72;5.20;;;20.70;77.30;;;;;;5036435;28;20025;-72
2021/06/12 03:52:24;;;;;;;7.25;5.47;;;20.70;77.40;;;;;;5035423;28;20507;-72
2021/06/12 03:54:50;;;;;;;8.75;5.10;;;20.70;78.00;;;;;;5037582;28;20026;-72
2021/06/12 03:57:16;;;;;;;7.22;4.97;;;20.60;77.70;;;;;;5038998;28;20029;-72
2021/06/12 03:59:44;;;;;;;6.32;4.80;;;20.70;77.40;;;;;;5036323;28;20039;-72
2021/06/12 04:02:11;;;;;;;7.63;5.35;;;20.70;77.40;;;;;;5053361;28;20037;-72
2021/06/12 04:04:37;;;;;;;7.78;6.40;;;20.70;77.30;;;;;;5036986;28;20036;-72
2021/06/12 04:07:03;;;;;;;9.73;6.60;;;20.70;77.30;;;;;;5037436;28;20017;-72
2021/06/12 04:09:28;;;;;;;8.27;7.38;;;20.70;77.40;;;;;;5035298;28;20459;-72
2021/06/12 04:11:54;;;;;;;8.45;7.35;;;20.70;77.40;;;;;;5037306;28;20021;-72
2021/06/12 04:14:19;;;;;;;11.82;10.38;;;20.80;77.40;;;;;;5042754;28;20475;-72
2021/06/12 04:16:45;;;;;;;11.65;8.18;;;20.80;77.30;;;;;;5041978;28;20029;-72
2021/06/12 04:19:10;;;;;;;9.43;7.95;;;20.80;77.70;;;;;;5041698;28;20508;-72
2021/06/12 04:21:36;;;;;;;10.65;9.57;;;20.70;77.70;;;;;;5042513;28;20036;-72
2021/06/12 04:24:01;;;;;;;7.75;6.55;;;20.70;77.80;;;;;;5041092;28;20559;-73
2021/06/12 04:26:27;;;;;;;16.77;12.57;;;20.70;77.90;;;;;;5040156;28;20033;-72
2021/06/12 04:28:52;;;;;;;14.70;11.00;;;20.80;77.70;;;;;;5039020;28;20028;-72
2021/06/12 04:31:18;;;;;;;15.93;10.27;;;20.80;77.70;;;;;;5041615;28;20496;-72
2021/06/12 04:33:43;;;;;;;13.63;9.85;;;20.80;77.60;;;;;;5039382;28;20037;-73
2021/06/12 04:36:09;;;;;;;13.85;11.05;;;20.80;77.60;;;;;;5037745;28;20025;-72
2021/06/12 04:38:34;;;;;;;20.02;12.90;;;20.90;77.50;;;;;;5040938;28;20041;-72
2021/06/12 04:41:00;;;;;;;14.32;10.38;;;20.90;77.60;;;;;;5042541;28;20030;-72
2021/06/12 04:43:25;;;;;;;12.10;8.98;;;20.90;77.50;;;;;;5040020;28;20190;-72
2021/06/12 04:45:51;;;;;;;14.77;9.23;;;20.90;77.60;;;;;;5040096;28;20156;-72
2021/06/12 04:48:16;;;;;;;12.02;9.10;;;21.00;77.70;;;;;;5039817;28;20025;-72
2021/06/12 04:50:42;;;;;;;9.75;8.02;;;21.00;77.50;;;;;;5040567;28;20033;-72
2021/06/12 04:53:10;;;;;;;10.80;6.95;;;21.10;78.10;;;;;;5040934;28;20025;-72
2021/06/12 04:55:35;;;;;;;8.30;6.90;;;21.10;78.60;;;;;;5040261;28;20036;-72
2021/06/12 04:58:01;;;;;;;8.57;7.30;;;21.10;78.30;;;;;;5040491;28;20236;-72
2021/06/12 05:00:27;;;;;;;8.75;7.13;;;21.10;78.50;;;;;;5038985;28;20038;-72
2021/06/12 05:02:53;;;;;;;8.40;6.88;;;21.10;78.40;;;;;;5039294;28;20039;-72
2021/06/12 05:05:18;;;;;;;10.15;7.88;;;21.10;79.30;;;;;;5039822;28;20045;-72
2021/06/12 05:07:44;;;;;;;9.77;6.68;;;21.00;79.00;;;;;;5040741;28;20026;-72
2021/06/12 05:10:10;;;;;;;9.25;7.63;;;21.10;79.00;;;;;;5040451;28;20025;-72
2021/06/12 05:12:37;;;;;;;8.15;6.80;;;21.20;79.70;;;;;;5041053;28;20048;-73
2021/06/12 05:15:07;;;;;;;11.68;7.38;;;21.20;79.80;;;;;;5035802;28;20030;-73
2021/06/12 05:17:33;;;;;;;13.68;7.97;;;21.20;79.50;;;;;;5038865;28;20032;-72
2021/06/12 05:19:58;;;;;;;8.25;7.10;;;21.20;79.30;;;;;;5037796;28;20503;-72
2021/06/12 05:22:26;;;;;;;8.10;6.93;;;21.30;79.10;;;;;;5039564;28;20036;-72
2021/06/12 05:24:53;;;;;;;7.40;6.57;;;21.40;79.30;;;;;;5039037;28;20037;-72
2021/06/12 05:27:18;;;;;;;9.32;7.55;;;21.40;79.80;;;;;;5039092;28;20514;-72
2021/06/12 05:29:45;;;;;;;11.75;8.55;;;21.30;79.70;;;;;;5039986;28;20030;-71
2021/06/12 05:32:11;;;;;;;12.10;7.97;;;21.20;80.00;;;;;;5040628;28;20021;-72
2021/06/12 05:34:37;;;;;;;19.27;9.65;;;21.20;79.60;;;;;;5041305;28;20396;-73
2021/06/12 05:37:02;;;;;;;14.57;9.43;;;21.20;80.10;;;;;;5037491;28;20037;-71
2021/06/12 05:39:28;;;;;;;15.13;10.77;;;21.20;80.40;;;;;;5040654;28;20037;-72
2021/06/12 05:41:53;;;;;;;17.30;10.80;;;21.10;80.60;;;;;;5041419;28;20033;-72
2021/06/12 05:44:19;;;;;;;14.77;10.02;;;21.10;80.30;;;;;;5040387;28;20719;-72
2021/06/12 05:46:45;;;;;;;11.15;9.57;;;21.10;80.60;;;;;;5039810;28;20030;-72
2021/06/12 05:49:10;;;;;;;13.40;10.30;;;21.20;80.40;;;;;;5040595;28;20029;-72
2021/06/12 05:51:35;;;;;;;14.50;10.23;;;21.20;80.70;;;;;;5038338;28;20112;-72
2021/06/12 05:54:01;;;;;;;16.23;11.55;;;21.10;80.80;;;;;;5039125;28;20025;-73
2021/06/12 05:56:26;;;;;;;22.38;12.13;;;21.10;81.30;;;;;;5037611;28;20472;-72
2021/06/12 05:58:52;;;;;;;14.57;10.55;;;21.00;81.70;;;;;;5034127;28;20036;-73
2021/06/12 06:01:18;;;;;;;16.35;12.05;;;21.10;81.70;;;;;;5039552;28;20319;-72
2021/06/12 06:03:43;;;;;;;14.82;10.68;;;21.10;82.00;;;;;;5039570;28;20080;-72
2021/06/12 06:06:09;;;;;;;15.15;11.60;;;21.00;82.10;;;;;;5040669;28;20037;-72
2021/06/12 06:08:35;;;;;;;21.02;10.00;;;21.00;82.10;;;;;;5037076;28;20029;-72
2021/06/12 06:11:01;;;;;;;24.40;12.43;;;21.10;81.90;;;;;;5040111;28;20056;-71
2021/06/12 06:13:27;;;;;;;21.63;12.45;;;21.20;81.90;;;;;;5040720;28;20052;-72
2021/06/12 06:15:53;;;;;;;22.27;11.63;;;21.20;82.00;;;;;;5039606;28;20542;-72
2021/06/12 06:18:18;;;;;;;21.08;13.77;;;21.20;81.60;;;;;;5038632;28;20462;-71
2021/06/12 06:20:44;;;;;;;18.58;14.40;;;21.30;81.80;;;;;;5040195;28;20031;-71
2021/06/12 06:23:10;;;;;;;20.13;13.40;;;21.30;81.90;;;;;;5038855;28;20496;-71
2021/06/12 06:25:35;;;;;;;22.70;15.43;;;21.30;81.70;;;;;;5040587;28;20099;-72
2021/06/12 06:28:01;;;;;;;16.38;13.65;;;21.30;81.90;;;;;;5036939;28;20033;-73
2021/06/12 06:30:27;;;;;;;26.42;15.27;;;21.30;82.00;;;;;;5040006;28;20033;-72
2021/06/12 06:32:52;;;;;;;24.92;15.55;;;21.20;82.20;;;;;;5038869;28;20107;-72
2021/06/12 06:35:18;;;;;;;24.90;15.68;;;21.20;81.90;;;;;;5037020;28;20489;-73
2021/06/12 06:37:43;;;;;;;25.23;15.68;;;21.20;82.00;;;;;;5039438;28;20752;-75
2021/06/12 06:40:10;;;;;;;21.13;16.00;;;21.20;81.80;;;;;;5039272;28;20048;-75
2021/06/12 06:42:36;;;;;;;21.35;17.00;;;21.20;82.30;;;;;;5039183;28;20071;-75
2021/06/12 06:45:03;;;;;;;25.63;16.77;;;21.30;81.70;;;;;;5035197;28;20037;-75
2021/06/12 06:47:29;;;;;;;29.55;16.20;;;21.30;81.50;;;;;;5037480;28;20035;-75
2021/06/12 06:49:55;;;;;;;19.23;16.10;;;21.40;81.20;;;;;;5038856;28;20017;-75
2021/06/12 06:52:20;;;;;;;21.67;15.48;;;21.40;81.00;;;;;;5038622;28;20082;-75
2021/06/12 06:54:46;;;;;;;23.55;15.88;;;21.40;80.90;;;;;;5039491;28;20039;-75
2021/06/12 06:57:12;;;;;;;20.55;15.95;;;21.50;80.60;;;;;;5037422;28;20120;-75
2021/06/12 06:59:37;;;;;;;26.33;16.05;;;21.40;80.50;;;;;;5038667;28;20033;-75
2021/06/12 07:02:03;;;;;;;22.92;15.73;;;21.30;80.50;;;;;;5038137;28;20026;-75
2021/06/12 07:04:28;;;;;;;20.65;15.52;;;21.20;80.80;;;;;;5037849;28;20075;-75
2021/06/12 07:06:54;;;;;;;18.02;14.50;;;21.20;81.10;;;;;;5038388;28;20045;-75
2021/06/12 07:09:19;;;;;;;14.00;12.20;;;21.00;81.50;;;;;;5038226;28;20681;-75
2021/06/12 07:11:45;;;;;;;19.52;13.55;;;20.90;81.70;;;;;;5036179;28;20025;-75
2021/06/12 07:14:10;;;;;;;18.15;13.30;;;21.00;81.80;;;;;;5039595;28;20055;-75
2021/06/12 07:16:36;;;;;;;27.00;14.70;;;21.00;81.60;;;;;;5036952;28;20083;-75
2021/06/12 07:19:02;;;;;;;20.50;13.07;;;21.10;81.60;;;;;;5033996;28;20404;-75
2021/06/12 07:21:28;;;;;;;21.73;15.35;;;21.10;81.30;;;;;;5035734;28;20116;-75
2021/06/12 07:23:54;;;;;;;20.80;14.00;;;21.10;81.30;;;;;;5038588;28;20032;-74
2021/06/12 07:26:19;;;;;;;39.38;16.20;;;21.00;81.50;;;;;;5036532;28;20029;-74
2021/06/12 07:28:45;;;;;;;25.55;14.02;;;20.90;82.60;;;;;;5036970;28;20033;-74
2021/06/12 07:31:10;;;;;;;26.35;14.88;;;20.90;83.90;;;;;;5037332;28;20025;-75
2021/06/12 07:33:36;;;;;;;26.90;17.63;;;20.80;84.00;;;;;;5035271;28;20041;-75
2021/06/12 07:36:02;;;;;;;28.27;16.67;;;20.70;85.50;;;;;;5038555;28;20029;-74
2021/06/12 07:38:29;;;;;;;24.20;16.98;;;20.50;86.50;;;;;;5036763;28;20044;-74
2021/06/12 07:40:54;;;;;;;23.65;15.27;;;20.40;87.00;;;;;;5035875;28;20028;-75
2021/06/12 07:43:20;;;;;;;18.73;15.05;;;20.40;88.00;;;;;;5038768;28;20026;-75
2021/06/12 07:45:49;;;;;;;23.55;14.82;;;20.40;87.90;;;;;;5038000;28;20993;-75
2021/06/12 07:48:16;;;;;;;19.10;15.13;;;20.50;88.60;;;;;;5039503;28;20397;-75
2021/06/12 07:50:42;;;;;;;22.52;15.20;;;20.60;88.50;;;;;;5037473;28;20021;-76
2021/06/12 07:53:08;;;;;;;22.02;14.85;;;20.70;88.30;;;;;;5038292;28;20459;-76
2021/06/12 07:55:34;;;;;;;20.55;16.45;;;20.80;88.10;;;;;;5040079;28;20044;-77
2021/06/12 07:58:00;;;;;;;24.02;14.85;;;20.70;88.20;;;;;;5035639;28;20116;-75
2021/06/12 08:00:26;;;;;;;20.90;14.82;;;20.80;88.40;;;;;;5034039;28;20035;-77
2021/06/12 08:02:52;;;;;;;21.73;13.93;;;20.80;88.10;;;;;;5032622;28;20025;-72
2021/06/12 08:05:17;;;;;;;20.70;12.50;;;20.90;87.40;;;;;;5036767;28;20042;-72
2021/06/12 08:07:43;;;;;;;59.50;20.73;;;21.00;87.20;;;;;;5036693;28;20519;-72
2021/06/12 08:10:09;;;;;;;47.90;17.98;;;21.10;87.50;;;;;;5035053;28;20140;-72
2021/06/12 08:12:36;;;;;;;27.17;15.43;;;21.20;86.70;;;;;;5036537;28;20025;-71
2021/06/12 08:15:03;;;;;;;22.25;13.65;;;21.30;86.60;;;;;;5032547;28;20556;-71
2021/06/12 08:17:29;;;;;;;23.92;15.38;;;21.40;85.90;;;;;;5036569;28;20477;-71
2021/06/12 08:19:54;;;;;;;23.65;14.57;;;21.50;85.90;;;;;;5034056;28;20025;-70
2021/06/12 08:22:20;;;;;;;18.73;13.20;;;21.50;85.60;;;;;;5035508;28;20032;-72
2021/06/12 08:24:46;;;;;;;18.42;14.25;;;21.50;85.70;;;;;;5033895;28;20332;-72
2021/06/12 08:27:11;;;;;;;26.48;13.90;;;21.50;85.20;;;;;;5038091;28;20017;-71
2021/06/12 08:29:37;;;;;;;29.60;13.73;;;21.50;85.00;;;;;;5036525;28;20033;-71
2021/06/12 08:32:04;;;;;;;25.25;14.63;;;21.50;84.50;;;;;;5036820;28;20028;-72
2021/06/12 08:34:29;;;;;;;14.88;11.85;;;21.50;84.20;;;;;;5035111;28;20040;-71
2021/06/12 08:36:55;;;;;;;40.10;13.98;;;21.50;84.10;;;;;;5035919;28;20029;-72
2021/06/12 08:39:20;;;;;;;34.05;12.00;;;21.60;84.10;;;;;;5034119;28;20043;-72
2021/06/12 08:41:46;;;;;;;27.63;12.98;;;21.60;83.90;;;;;;5035266;28;20025;-72
2021/06/12 08:44:12;;;;;;;37.97;14.57;;;21.70;84.00;;;;;;5035064;28;20025;-72
2021/06/12 08:46:39;;;;;;;26.45;13.75;;;21.70;84.10;;;;;;5033152;28;20033;-72
2021/06/12 08:49:05;;;;;;;39.25;14.00;;;21.80;83.30;;;;;;5036756;28;20456;-72
2021/06/12 08:51:31;;;;;;;46.58;12.10;;;21.90;83.70;;;;;;5034333;28;20029;-72
2021/06/12 08:53:56;;;;;;;21.55;9.80;;;22.00;83.00;;;;;;5032450;28;20501;-71
2021/06/12 08:56:22;;;;;;;28.58;12.43;;;22.10;82.40;;;;;;5036208;28;20041;-71
2021/06/12 08:58:48;;;;;;;26.10;10.73;;;22.30;81.50;;;;;;5034671;28;20529;-70
2021/06/12 09:01:14;;;;;;;15.73;8.85;;;22.40;80.70;;;;;;5039260;28;20029;-71
2021/06/12 09:03:41;;;;;;;15.98;9.82;;;22.60;80.10;;;;;;5040861;28;20040;-71
2021/06/12 09:06:08;;;;;;;28.30;9.07;;;22.70;79.50;;;;;;5038662;28;20029;-72
2021/06/12 09:08:37;;;;;;;16.30;7.93;;;22.70;79.20;;;;;;5036485;28;20048;-72
2021/06/12 09:11:07;;;;;;;16.23;8.38;;;22.70;78.70;;;;;;5036064;28;20025;-73
2021/06/12 09:13:41;;;;;;;16.65;8.48;;;22.70;78.50;;;;;;5054733;28;20091;-73
2021/06/12 09:16:23;;;;;;;16.27;7.15;;;22.60;78.60;;;;;;5037548;28;20041;-73
2021/06/12 09:18:49;;;;;;;14.07;7.80;;;22.60;78.40;;;;;;5037006;28;20111;-71
2021/06/12 09:21:29;;;;;;;11.60;6.00;;;22.60;78.50;;;;;;5038360;28;20577;-72
2021/06/12 09:23:58;;;;;;;9.80;7.22;;;22.80;77.40;;;;;;5040156;28;20041;-72
2021/06/12 09:26:53;;;;;;;19.48;7.50;;;22.80;77.20;;;;;;5039014;28;20444;-72
2021/06/12 09:29:20;;;;;;;11.00;6.50;;;22.90;77.40;;;;;;5038597;28;20036;-72
2021/06/12 09:31:49;;;;;;;14.10;5.72;;;23.00;76.90;;;;;;5038447;28;20025;-72
2021/06/12 09:34:18;;;;;;;10.45;7.03;;;23.10;77.10;;;;;;5036015;28;20036;-71
2021/06/12 09:36:45;;;;;;;9.43;6.97;;;23.20;76.20;;;;;;5038451;28;20033;-70
2021/06/12 09:39:18;;;;;;;9.88;7.07;;;23.30;76.10;;;;;;5036893;28;20872;-72
2021/06/12 09:41:50;;;;;;;9.55;5.80;;;23.40;75.90;;;;;;5037049;28;20037;-71
2021/06/12 09:44:35;;;;;;;9.32;5.60;;;23.60;75.80;;;;;;5037483;28;20036;-71
2021/06/12 09:47:20;;;;;;;7.40;6.27;;;23.70;74.50;;;;;;5037646;28;20071;-70
2021/06/12 09:49:45;;;;;;;7.80;6.70;;;23.90;74.20;;;;;;5033559;28;20505;-71
2021/06/12 09:52:14;;;;;;;9.77;7.10;;;24.10;73.10;;;;;;5038690;28;20067;-71
2021/06/12 09:54:41;;;;;;;17.45;6.38;;;24.20;73.00;;;;;;5037491;28;20040;-71
2021/06/12 09:57:07;;;;;;;12.38;7.72;;;24.40;72.20;;;;;;5035902;28;20021;-70
2021/06/12 09:59:42;;;;;;;14.30;7.75;;;24.50;70.80;;;;;;5037258;28;20037;-70
2021/06/12 10:02:08;;;;;;;10.90;6.40;;;24.50;70.60;;;;;;5035951;28;20462;-71
2021/06/12 10:04:34;;;;;;;17.75;7.25;;;24.40;71.10;;;;;;5036556;28;20401;-71
2021/06/12 10:06:59;;;;;;;12.52;6.43;;;24.20;71.10;;;;;;5037944;28;20102;-71
2021/06/12 10:09:26;;;;;;;19.52;6.97;;;24.00;70.30;;;;;;5035605;28;20033;-71
2021/06/12 10:11:54;;;;;;;26.70;7.10;;;23.80;71.50;;;;;;5035067;28;20381;-70
2021/06/12 10:14:20;;;;;;;40.92;7.57;;;23.60;72.00;;;;;;5036195;28;20079;-70
2021/06/12 10:16:47;;;;;;;14.35;5.75;;;23.50;71.90;;;;;;5035872;28;20657;-71
2021/06/12 10:19:16;;;;;;;20.00;7.05;;;23.30;72.50;;;;;;5036818;28;20440;-72
2021/06/12 10:21:42;;;;;;;29.80;8.10;;;23.10;73.10;;;;;;5035430;28;20024;-72
2021/06/12 10:24:08;;;;;;;12.93;6.75;;;23.10;73.50;;;;;;5035489;28;20028;-71
2021/06/12 10:26:34;;;;;;;9.93;4.72;;;23.10;72.50;;;;;;5034407;28;20580;-71
2021/06/12 10:29:01;;;;;;;10.27;5.88;;;23.00;72.80;;;;;;5037680;28;20063;-71
2021/06/12 10:31:28;;;;;;;33.72;7.50;;;23.00;73.00;;;;;;5035610;28;20025;-72
2021/06/12 10:33:56;;;;;;;19.42;7.22;;;23.00;72.80;;;;;;5036842;28;20043;-72
2021/06/12 10:36:23;;;;;;;7.75;5.10;;;22.90;73.30;;;;;;5035876;28;20036;-69
2021/06/12 10:38:50;;;;;;;6.22;5.63;;;22.90;72.50;;;;;;5036652;28;20339;-70
2021/06/12 10:41:25;;;;;;;10.55;5.78;;;22.80;72.80;;;;;;5035975;28;20086;-70
2021/06/12 10:43:52;;;;;;;11.50;4.75;;;22.80;73.20;;;;;;5036160;28;20060;-69
2021/06/12 10:46:45;;;;;;;11.02;6.47;;;22.70;73.50;;;;;;5033512;28;20033;-69
2021/06/12 10:49:11;;;;;;;10.68;5.35;;;22.60;72.40;;;;;;5038119;28;20061;-69
2021/06/12 10:51:36;;;;;;;15.27;6.47;;;22.50;72.70;;;;;;5033161;28;21300;-69
2021/06/12 10:54:11;;;;;;;8.02;7.03;;;22.40;73.60;;;;;;5034658;28;20031;-69
2021/06/12 10:56:42;;;;;;;10.95;6.30;;;22.20;75.90;;;;;;5035738;28;20571;-69
2021/06/12 10:59:09;;;;;;;12.23;6.80;;;22.10;76.50;;;;;;5035146;28;20838;-70
2021/06/12 11:01:35;;;;;;;15.45;6.50;;;22.00;77.10;;;;;;5035063;28;20062;-70
2021/06/12 11:04:09;;;;;;;12.07;6.43;;;21.90;78.20;;;;;;5034462;28;20037;-70
2021/06/12 11:09:14;;;;;;;9.75;6.93;;;21.90;77.90;;;;;;5050759;28;20041;-70
2021/06/12 11:11:41;;;;;;;10.10;7.72;;;21.90;77.90;;;;;;5034739;28;20033;-72
2021/06/12 11:14:22;;;;;;;9.38;7.13;;;21.90;76.70;;;;;;5034521;28;20025;-68
2021/06/12 11:17:14;;;;;;;10.63;7.55;;;22.00;76.20;;;;;;5034289;28;20029;-69
2021/06/12 11:19:44;;;;;;;11.75;6.07;;;22.00;75.80;;;;;;5034916;28;20044;-69
2021/06/12 11:22:36;;;;;;;18.65;8.50;;;22.20;75.40;;;;;;5035432;28;20381;-72
2021/06/12 11:25:09;;;;;;;45.83;9.25;;;22.40;74.70;;;;;;5035253;28;20676;-73
2021/06/12 11:27:39;;;;;;;13.75;5.88;;;22.60;73.70;;;;;;5020394;28;20064;-73
2021/06/12 11:30:17;;;;;;;9.98;6.10;;;22.80;73.40;;;;;;5037259;28;20032;-73
2021/06/12 11:32:45;;;;;;;28.50;7.20;;;23.00;72.70;;;;;;5038477;28;20087;-73
2021/06/12 11:35:12;;;;;;;9.32;5.45;;;23.20;71.30;;;;;;5038683;28;20032;-72
2021/06/12 11:37:49;;;;;;;10.57;6.28;;;23.30;69.10;;;;;;5036254;28;20396;-73
2021/06/12 11:40:22;;;;;;;9.63;4.80;;;23.10;67.90;;;;;;5038603;28;20029;-73
2021/06/12 11:42:49;;;;;;;11.32;5.22;;;22.90;68.70;;;;;;5038712;28;20074;-73
2021/06/12 11:45:23;;;;;;;8.27;5.05;;;22.90;68.40;;;;;;5038349;28;20037;-73
2021/06/12 11:47:50;;;;;;;5.75;4.93;;;22.80;68.00;;;;;;5053523;28;20090;-73
2021/06/12 11:50:16;;;;;;;8.80;4.38;;;22.70;68.50;;;;;;5038496;28;20021;-74
2021/06/12 11:52:43;;;;;;;5.75;3.30;;;22.50;66.10;;;;;;5037244;28;20374;-73
2021/06/12 11:55:13;;;;;;;5.75;3.33;;;22.10;63.80;;;;;;5036365;28;20020;-73
2021/06/12 11:57:43;;;;;;;5.68;3.60;;;21.70;63.60;;;;;;5036833;28;20029;-73
2021/06/12 12:00:28;;;;;;;12.23;3.50;;;21.40;65.00;;;;;;5038435;28;20033;-73
2021/06/12 12:03:15;;;;;;;4.75;3.35;;;21.20;65.70;;;;;;5036937;28;20024;-81
2021/06/12 12:05:48;;;;;;;5.40;3.17;;;21.20;66.80;;;;;;5004163;28;20143;-76
2021/06/12 12:08:20;;;;;;;5.07;3.40;;;21.20;66.40;;;;;;5034285;28;20097;-73
2021/06/12 12:10:50;;;;;;;11.45;4.30;;;21.30;66.10;;;;;;5033068;28;20017;-69
2021/06/12 12:13:35;;;;;;;9.52;3.35;;;21.50;66.10;;;;;;5035107;28;20029;-70
2021/06/12 12:16:04;;;;;;;7.25;3.53;;;21.70;66.20;;;;;;5034201;28;20669;-72
2021/06/12 12:18:42;;;;;;;6.60;3.83;;;21.90;64.60;;;;;;5029301;28;20407;-76
2021/06/12 12:21:07;;;;;;;7.43;4.95;;;21.90;64.70;;;;;;5050156;28;20191;-77
2021/06/12 12:23:33;;;;;;;6.00;3.78;;;21.80;65.30;;;;;;5032626;28;20551;-78
2021/06/12 12:26:14;;;;;;;8.93;4.10;;;21.80;65.70;;;;;;5017103;28;20030;-78
2021/06/12 12:29:14;;;;;;;6.22;3.95;;;21.80;65.20;;;;;;5034477;28;20395;-77
2021/06/12 12:31:47;;;;;;;7.00;2.83;;;21.80;65.40;;;;;;5031629;28;20035;-76
2021/06/12 12:34:15;;;;;;;6.45;2.58;;;22.00;63.60;;;;;;5036909;28;20031;-75
2021/06/12 12:36:43;;;;;;;5.35;2.53;;;21.90;63.40;;;;;;5036770;28;20040;-76
2021/06/12 12:39:09;;;;;;;5.07;2.47;;;21.90;63.20;;;;;;5034591;28;20507;-76
2021/06/12 12:41:36;;;;;;;4.13;2.60;;;21.90;62.60;;;;;;5037505;28;20033;-76
2021/06/12 12:44:16;;;;;;;4.10;2.03;;;21.90;62.50;;;;;;5036380;28;20024;-76